Time;durP1;ratioP1;P1;durP2;ratioP2;P2;SDS_P1;SDS_P2;PMS_P1;PMS_P2;Temp;Humidity;BMP_temperature;BMP_pressure;BME280_temperature;BME280_humidity;BME280_pressure;Samples;Min_cycle;Max_cycle;Signal;HPM_P1;HPM_P2
2023/06/23 00:02:05;;;;;;;62.45;41.95;;;;;;;18.43;99.32;99959.84;10209095;29;20110;-74
2023/06/23 00:07:09;;;;;;;59.00;41.67;;;;;;;18.44;99.52;99958.84;10199628;29;20036;-74
2023/06/23 00:12:12;;;;;;;59.30;41.88;;;;;;;18.36;99.37;99967.91;10195621;29;20059;-75
2023/06/23 00:17:15;;;;;;;64.82;41.45;;;;;;;18.29;100.00;99976.00;10193395;29;20044;-74
2023/06/23 00:22:19;;;;;;;54.55;39.30;;;;;;;18.18;100.00;99973.69;10194069;29;20044;-74
2023/06/23 00:27:22;;;;;;;47.22;35.95;;;;;;;18.02;99.37;99981.97;10185212;29;20504;-75
2023/06/23 00:32:25;;;;;;;52.03;36.33;;;;;;;17.96;100.00;99988.13;10188054;28;20048;-72
2023/06/23 00:37:31;;;;;;;39.63;31.55;;;;;;;17.78;99.13;99985.72;10192170;29;20044;-73
2023/06/23 00:42:43;;;;;;;43.40;30.63;;;;;;;17.68;98.95;99980.53;10191818;29;20444;-73
2023/06/23 00:47:47;;;;;;;40.58;28.13;;;;;;;17.60;99.21;99995.00;10192547;29;20471;-73
2023/06/23 00:52:52;;;;;;;37.80;27.23;;;;;;;17.47;98.82;100005.63;10196631;29;20087;-73
2023/06/23 00:57:57;;;;;;;37.95;28.88;;;;;;;17.27;98.73;100016.06;10186335;29;20055;-73
2023/06/23 01:03:02;;;;;;;43.67;30.60;;;;;;;17.17;98.67;100029.84;10193218;29;20039;-75
2023/06/23 01:08:18;;;;;;;42.72;32.40;;;;;;;17.00;98.61;100031.75;10197660;29;20124;-73
2023/06/23 01:13:32;;;;;;;40.40;28.88;;;;;;;16.81;98.10;100043.84;10215940;28;20083;-73
2023/06/23 01:18:44;;;;;;;30.77;22.33;;;;;;;16.57;97.66;100060.16;10225656;28;20043;-75
2023/06/23 01:24:06;;;;;;;41.20;23.53;;;;;;;16.29;97.88;100052.41;10212095;29;20138;-73
2023/06/23 01:29:11;;;;;;;34.28;22.35;;;;;;;16.32;98.16;100062.06;10213393;29;20074;-74
2023/06/23 01:34:20;;;;;;;29.48;21.95;;;;;;;16.20;98.72;100082.31;10190533;29;20439;-74
2023/06/23 01:39:26;;;;;;;34.35;21.75;;;;;;;16.03;97.80;100084.16;10190049;29;20415;-74
2023/06/23 01:44:33;;;;;;;30.65;21.50;;;;;;;15.94;98.43;100086.03;10198241;29;20075;-75
2023/06/23 01:49:37;;;;;;;31.55;20.13;;;;;;;15.97;98.54;100101.09;10202156;29;20072;-74
2023/06/23 01:54:42;;;;;;;26.20;18.83;;;;;;;16.04;98.74;100102.94;10201271;29;20137;-75
2023/06/23 01:59:48;;;;;;;23.02;18.30;;;;;;;16.01;98.05;100097.88;10204703;29;20048;-74
2023/06/23 02:04:52;;;;;;;20.08;12.75;;;;;;;15.94;98.81;100104.97;10197278;29;20054;-74
2023/06/23 02:09:56;;;;;;;13.55;10.70;;;;;;;15.88;99.09;100117.34;10202526;29;20439;-75
2023/06/23 02:15:03;;;;;;;12.18;5.95;;;;;;;15.62;100.00;100106.56;10204881;29;20158;-74
2023/06/23 02:20:15;;;;;;;6.97;4.72;;;;;;;15.61;99.34;100109.47;10201505;29;20044;-74
2023/06/23 02:25:18;;;;;;;10.50;5.03;;;;;;;15.53;100.00;100120.25;10201429;29;20040;-73
2023/06/23 02:30:23;;;;;;;8.43;4.90;;;;;;;15.44;100.00;100122.06;10199025;29;20825;-74
2023/06/23 02:35:28;;;;;;;8.13;4.75;;;;;;;15.39;99.49;100132.56;10200398;29;20131;-73
2023/06/23 02:40:34;;;;;;;8.18;5.47;;;;;;;15.31;99.78;100133.31;10199735;29;20102;-74
2023/06/23 02:45:43;;;;;;;7.30;5.18;;;;;;;15.13;98.98;100155.03;10194890;29;20044;-73
2023/06/23 02:50:48;;;;;;;7.28;5.53;;;;;;;14.93;100.00;100161.66;10186638;29;20046;-73
2023/06/23 02:55:57;;;;;;;6.82;5.95;;;;;;;14.98;100.00;100167.44;10198285;29;20051;-74
2023/06/23 03:01:02;;;;;;;7.68;6.35;;;;;;;14.77;100.00;100174.03;10196586;29;20048;-73
2023/06/23 03:06:05;;;;;;;8.68;7.03;;;;;;;14.91;100.00;100194.25;10198956;29;20047;-74
2023/06/23 03:11:08;;;;;;;7.82;7.03;;;;;;;14.65;100.00;100196.94;10192862;29;20044;-73
2023/06/23 03:16:22;;;;;;;11.65;7.22;;;;;;;14.70;100.00;100201.84;10195521;29;20044;-72
2023/06/23 03:21:25;;;;;;;9.03;7.17;;;;;;;14.69;100.00;100195.59;10200149;29;20059;-74
2023/06/23 03:26:29;;;;;;;11.52;7.55;;;;;;;14.77;99.48;100227.25;10208954;29;20031;-73
2023/06/23 03:31:41;;;;;;;8.95;7.10;;;;;;;14.68;99.15;100247.13;10199091;29;20048;-72
2023/06/23 03:36:46;;;;;;;9.75;7.55;;;;;;;14.79;99.47;100263.13;10198447;29;20040;-73
2023/06/23 03:41:49;;;;;;;8.38;7.38;;;;;;;14.98;100.00;100295.41;10196318;29;20055;-72
2023/06/23 03:46:57;;;;;;;10.18;7.30;;;;;;;14.97;100.00;100299.09;10192141;29;20043;-73
2023/06/23 03:52:02;;;;;;;11.02;8.35;;;;;;;14.89;100.00;100331.50;10195720;29;20040;-73
2023/06/23 03:57:08;;;;;;;9.55;8.55;;;;;;;14.71;100.00;100342.28;10185206;29;20131;-73
2023/06/23 04:02:17;;;;;;;10.05;8.85;;;;;;;14.80;100.00;100356.75;10192744;29;20396;-74
2023/06/23 04:07:23;;;;;;;11.38;10.10;;;;;;;14.81;100.00;100347.66;10193016;29;20491;-75
2023/06/23 04:12:27;;;;;;;14.10;10.40;;;;;;;14.92;100.00;100379.88;10194066;29;20111;-74
2023/06/23 04:17:34;;;;;;;13.82;11.65;;;;;;;14.77;100.00;100393.03;10189615;29;20044;-75
2023/06/23 04:22:40;;;;;;;16.90;13.77;;;;;;;14.83;100.00;100389.72;10196203;29;20067;-74
2023/06/23 04:27:45;;;;;;;22.85;15.35;;;;;;;14.79;100.00;100401.88;10191137;29;20488;-74
2023/06/23 04:32:50;;;;;;;22.98;15.57;;;;;;;14.57;100.00;100404.97;10196634;29;20091;-74
2023/06/23 04:38:00;;;;;;;24.90;16.38;;;;;;;14.68;100.00;100407.47;10198113;29;20063;-75
2023/06/23 04:43:09;;;;;;;25.95;16.23;;;;;;;14.57;100.00;100426.59;10205149;29;20050;-74
2023/06/23 04:48:14;;;;;;;20.85;14.60;;;;;;;14.72;100.00;100435.91;10199541;29;20431;-73
2023/06/23 04:53:22;;;;;;;19.52;14.88;;;;;;;14.63;100.00;100422.44;10199547;29;20115;-73
2023/06/23 04:58:28;;;;;;;20.55;14.93;;;;;;;14.79;100.00;100450.53;10194864;29;20069;-74
2023/06/23 05:03:33;;;;;;;23.85;14.55;;;;;;;14.69;100.00;100462.41;10188816;29;20063;-73
2023/06/23 05:08:37;;;;;;;19.55;12.80;;;;;;;14.78;100.00;100481.28;10200095;29;20134;-73
2023/06/23 05:13:42;;;;;;;16.13;11.70;;;;;;;14.90;99.94;100509.00;10196393;29;20050;-73
2023/06/23 05:18:48;;;;;;;14.52;10.70;;;;;;;14.66;100.00;100516.78;10200342;29;20047;-74
2023/06/23 05:23:54;;;;;;;16.90;11.40;;;;;;;14.75;100.00;100527.53;10196399;29;20040;-74
2023/06/23 05:28:58;;;;;;;14.40;11.00;;;;;;;14.59;100.00;100538.16;10206154;29;20048;-73
2023/06/23 05:34:05;;;;;;;15.90;10.43;;;;;;;14.79;100.00;100547.03;10208881;29;20060;-74
2023/06/23 05:39:11;;;;;;;17.50;11.15;;;;;;;14.91;99.68;100555.81;10194273;29;20069;-74
2023/06/23 05:44:14;;;;;;;14.85;9.95;;;;;;;14.93;99.93;100580.88;10194822;29;20040;-73
2023/06/23 05:49:22;;;;;;;15.18;11.50;;;;;;;14.89;100.00;100579.44;10193128;29;20063;-73
2023/06/23 05:54:29;;;;;;;14.63;10.77;;;;;;;14.99;100.00;100583.81;10195176;29;20046;-74
2023/06/23 05:59:37;;;;;;;17.15;10.15;;;;;;;15.13;99.34;100600.56;10190042;29;20051;-75
2023/06/23 06:04:44;;;;;;;13.00;10.75;;;;;;;14.96;100.00;100602.22;10192895;29;20054;-73
2023/06/23 06:09:50;;;;;;;16.92;11.20;;;;;;;14.67;100.00;100608.53;10186361;29;20397;-73
2023/06/23 06:14:55;;;;;;;15.38;11.65;;;;;;;14.96;100.00;100623.84;10180829;29;20059;-73
2023/06/23 06:20:03;;;;;;;13.85;10.75;;;;;;;15.11;100.00;100635.03;10186276;29;20064;-74
2023/06/23 06:25:09;;;;;;;13.45;11.00;;;;;;;15.10;100.00;100642.31;10190182;29;20086;-73
2023/06/23 06:30:13;;;;;;;12.48;9.52;;;;;;;15.06;100.00;100651.72;10191003;29;20463;-73
2023/06/23 06:35:22;;;;;;;11.95;9.10;;;;;;;14.98;100.00;100665.97;10195053;28;20044;-74
2023/06/23 06:40:27;;;;;;;11.52;8.43;;;;;;;14.86;100.00;100685.22;10202806;29;20044;-75
2023/06/23 06:45:31;;;;;;;12.90;8.00;;;;;;;14.85;99.90;100694.34;10188106;29;20059;-74
2023/06/23 06:50:39;;;;;;;12.18;8.25;;;;;;;14.78;100.00;100705.75;10178266;29;20423;-73
2023/06/23 06:55:42;;;;;;;10.15;7.30;;;;;;;14.96;100.00;100724.78;10184547;29;20136;-74
2023/06/23 07:00:46;;;;;;;12.30;8.45;;;;;;;14.99;100.00;100732.59;10188710;29;20162;-74
2023/06/23 07:05:50;;;;;;;10.13;7.78;;;;;;;14.91;99.61;100746.00;10187244;29;20059;-73
2023/06/23 07:10:53;;;;;;;10.98;8.32;;;;;;;15.09;100.00;100751.53;10194372;29;20420;-73
2023/06/23 07:15:56;;;;;;;11.15;7.80;;;;;;;15.05;100.00;100764.47;10202093;29;20047;-74
2023/06/23 07:21:03;;;;;;;8.85;7.10;;;;;;;15.18;100.00;100779.56;10196801;29;20036;-73
2023/06/23 07:26:05;;;;;;;11.75;7.95;;;;;;;15.22;99.02;100795.38;10193572;29;20407;-74
2023/06/23 07:31:08;;;;;;;11.15;7.75;;;;;;;14.93;99.77;100808.06;10195501;29;20495;-74
2023/06/23 07:36:13;;;;;;;11.00;8.55;;;;;;;15.01;100.00;100822.59;10206288;29;20090;-74
2023/06/23 07:41:16;;;;;;;10.52;7.85;;;;;;;15.07;100.00;100831.97;10204950;29;20040;-74
2023/06/23 07:46:19;;;;;;;10.38;8.20;;;;;;;15.03;100.00;100836.84;10199445;29;20050;-80
2023/06/23 07:51:23;;;;;;;12.15;7.82;;;;;;;15.38;99.08;100845.38;10200660;29;20055;-77
2023/06/23 07:56:26;;;;;;;10.18;7.60;;;;;;;15.45;97.68;100857.34;10189714;29;20071;-76
2023/06/23 08:01:29;;;;;;;10.70;8.15;;;;;;;15.69;98.04;100865.84;10183219;29;20040;-76
2023/06/23 08:06:33;;;;;;;14.00;8.90;;;;;;;15.51;98.61;100866.72;10195402;29;20601;-76
2023/06/23 08:11:36;;;;;;;14.25;10.30;;;;;;;15.06;100.00;100873.56;10198812;29;20474;-75
2023/06/23 08:16:39;;;;;;;16.08;11.07;;;;;;;15.59;98.69;100877.69;10202024;29;20044;-75
2023/06/23 08:21:44;;;;;;;16.23;11.10;;;;;;;15.47;97.97;100879.72;10206105;29;20507;-76
2023/06/23 08:26:47;;;;;;;17.33;11.82;;;;;;;15.55;97.85;100884.38;10203764;29;20040;-76
2023/06/23 08:31:50;;;;;;;16.40;11.05;;;;;;;15.88;98.26;100893.91;10201942;29;20134;-76
2023/06/23 08:36:55;;;;;;;20.55;12.85;;;;;;;15.43;100.00;100891.81;10201802;29;20392;-76
2023/06/23 08:41:59;;;;;;;14.38;11.07;;;;;;;15.79;98.75;100901.03;10205532;29;20094;-76
2023/06/23 08:47:04;;;;;;;17.40;12.05;;;;;;;16.15;98.70;100896.66;10207255;29;20043;-76
2023/06/23 08:52:11;;;;;;;18.52;12.15;;;;;;;16.15;98.85;100901.19;10206557;29;20091;-76
2023/06/23 08:57:14;;;;;;;15.90;11.40;;;;;;;16.13;97.67;100908.66;10198786;29;20047;-76
2023/06/23 09:02:17;;;;;;;16.75;12.57;;;;;;;15.79;99.52;100928.09;10202873;29;20044;-76
2023/06/23 09:07:22;;;;;;;16.65;11.57;;;;;;;15.73;98.34;100931.41;10204800;28;20118;-76
2023/06/23 09:12:25;;;;;;;16.10;11.95;;;;;;;15.85;98.90;100951.06;10198352;29;20518;-75
2023/06/23 09:17:29;;;;;;;20.52;13.20;;;;;;;16.24;98.47;100949.13;10203885;29;20537;-75
2023/06/23 09:22:34;;;;;;;18.70;12.75;;;;;;;16.39;97.83;100957.66;10204389;29;20055;-75
2023/06/23 09:27:41;;;;;;;21.00;13.80;;;;;;;16.35;98.58;100965.22;10211849;29;20056;-75
2023/06/23 09:32:45;;;;;;;20.17;14.05;;;;;;;16.49;97.32;100963.91;10213912;29;20051;-76
2023/06/23 09:37:50;;;;;;;16.73;13.55;;;;;;;16.83;98.06;100970.59;10201295;29;20138;-78
2023/06/23 09:42:57;;;;;;;19.70;12.88;;;;;;;16.83;97.75;100982.28;10212890;29;20083;-76
2023/06/23 09:48:00;;;;;;;19.25;12.95;;;;;;;17.04;97.75;100992.91;10200892;29;20417;-76
2023/06/23 09:53:04;;;;;;;17.05;12.43;;;;;;;17.41;96.26;100990.09;10204326;29;20047;-75
2023/06/23 09:58:10;;;;;;;17.52;12.00;;;;;;;17.56;97.34;100998.56;10203379;29;20051;-75
2023/06/23 10:03:13;;;;;;;16.80;12.00;;;;;;;17.83;96.24;101003.06;10202075;29;20069;-75
2023/06/23 10:08:17;;;;;;;15.13;10.60;;;;;;;18.03;97.66;100995.59;10201446;29;20039;-75
2023/06/23 10:13:21;;;;;;;12.85;10.35;;;;;;;17.89;96.29;100999.69;10197686;29;20066;-75
2023/06/23 10:18:24;;;;;;;14.32;11.18;;;;;;;17.66;94.28;101009.34;10193410;29;20052;-75
2023/06/23 10:23:30;;;;;;;15.80;11.80;;;;;;;18.38;98.72;100999.25;10198092;29;20090;-75
2023/06/23 10:28:36;;;;;;;14.98;10.85;;;;;;;18.62;96.21;101009.38;10196567;29;20047;-75
2023/06/23 10:33:41;;;;;;;16.55;10.40;;;;;;;18.65;94.40;101016.38;10196951;29;20051;-77
2023/06/23 10:38:50;;;;;;;14.70;10.05;;;;;;;18.67;93.55;101026.09;10196374;29;20048;-77
2023/06/23 10:43:56;;;;;;;16.80;10.00;;;;;;;18.00;90.58;101035.84;10213326;29;20052;-77
2023/06/23 10:49:00;;;;;;;15.95;10.48;;;;;;;18.00;90.96;101036.69;10194563;29;20040;-77
2023/06/23 10:54:09;;;;;;;15.55;9.65;;;;;;;17.50;90.94;101039.06;10191787;29;20036;-77
2023/06/23 10:59:19;;;;;;;16.13;9.77;;;;;;;17.78;89.71;101031.72;10190658;29;20056;-77
2023/06/23 11:04:26;;;;;;;13.77;9.10;;;;;;;18.26;89.06;101044.88;10202286;29;20567;-77
2023/06/23 11:09:47;;;;;;;12.05;8.38;;;;;;;18.40;89.62;101048.88;10199165;29;20095;-77
2023/06/23 11:14:50;;;;;;;10.98;8.30;;;;;;;18.67;91.89;101050.56;10197302;29;20476;-77
2023/06/23 11:19:53;;;;;;;11.68;9.00;;;;;;;18.58;89.36;101057.00;10193267;29;20445;-77
2023/06/23 11:25:04;;;;;;;12.88;7.93;;;;;;;18.73;90.78;101054.50;10194870;29;20047;-77
2023/06/23 11:30:17;;;;;;;10.40;7.00;;;;;;;19.30;95.63;101049.34;10193766;29;20079;-77
2023/06/23 11:35:21;;;;;;;10.57;7.15;;;;;;;19.60;91.04;101060.69;10194038;29;20079;-77
2023/06/23 11:40:28;;;;;;;13.57;7.03;;;;;;;20.06;91.28;101066.56;10197794;29;20044;-77
2023/06/23 11:45:31;;;;;;;9.23;6.63;;;;;;;20.84;92.35;101074.13;10214415;29;20065;-77
2023/06/23 11:50:35;;;;;;;7.78;6.38;;;;;;;21.75;95.35;101071.88;10211391;29;20150;-78
2023/06/23 11:55:40;;;;;;;6.72;4.88;;;;;;;20.93;70.39;101072.25;10204706;29;20090;-77
2023/06/23 12:00:43;;;;;;;8.05;4.80;;;;;;;22.01;84.25;101074.25;10217937;29;20103;-78
2023/06/23 12:05:46;;;;;;;7.47;4.70;;;;;;;22.67;84.14;101074.53;10219478;29;20038;-78
2023/06/23 12:10:52;;;;;;;6.50;5.05;;;;;;;23.69;80.59;101068.28;10223764;29;20067;-79
2023/06/23 12:15:55;;;;;;;5.63;5.07;;;;;;;23.95;60.66;101060.38;10212467;29;20047;-79
2023/06/23 12:21:00;;;;;;;6.32;5.22;;;;;;;25.17;63.49;101061.91;10209002;29;20052;-79
2023/06/23 12:26:06;;;;;;;7.55;6.00;;;;;;;25.65;57.50;101053.66;10212772;29;20043;-79
2023/06/23 12:31:09;;;;;;;7.35;6.65;;;;;;;25.96;58.04;101063.22;10214884;29;20088;-79
2023/06/23 12:36:16;;;;;;;9.77;7.07;;;;;;;25.50;65.08;101056.53;10213723;29;20044;-79
2023/06/23 12:41:23;;;;;;;10.60;6.68;;;;;;;24.17;57.29;101061.22;10204495;29;20411;-78
2023/06/23 12:46:27;;;;;;;7.50;6.75;;;;;;;23.96;60.05;101061.22;10218692;29;20061;-79
2023/06/23 12:51:34;;;;;;;6.85;6.25;;;;;;;24.03;63.10;101062.16;10211258;29;20048;-80
2023/06/23 12:56:38;;;;;;;6.63;6.03;;;;;;;25.29;59.71;101065.78;10214520;29;20135;-80
2023/06/23 13:01:41;;;;;;;6.78;5.15;;;;;;;25.83;50.68;101056.63;10210504;29;20077;-79
2023/06/23 13:06:44;;;;;;;4.97;4.47;;;;;;;26.04;50.44;101055.59;10213458;29;20047;-78
2023/06/23 13:11:48;;;;;;;8.27;5.15;;;;;;;26.62;53.03;101059.63;10219213;29;20040;-79
2023/06/23 13:16:51;;;;;;;4.38;3.78;;;;;;;27.20;48.72;101051.44;10218404;29;20048;-78
2023/06/23 13:21:54;;;;;;;5.72;3.97;;;;;;;28.08;47.16;101058.19;10217671;29;20055;-79
2023/06/23 13:26:58;;;;;;;4.18;3.78;;;;;;;28.02;45.79;101060.75;10219762;29;20047;-79
2023/06/23 13:32:01;;;;;;;4.38;3.63;;;;;;;27.15;45.79;101054.88;10214903;29;20048;-79
2023/06/23 13:37:04;;;;;;;4.18;3.78;;;;;;;27.09;44.18;101065.91;10215245;29;20048;-79
2023/06/23 13:42:09;;;;;;;5.88;3.83;;;;;;;28.20;43.54;101053.63;10235898;29;20098;-79
2023/06/23 13:47:12;;;;;;;3.53;3.10;;;;;;;28.86;40.55;101064.06;10218550;29;20107;-80
2023/06/23 13:52:15;;;;;;;4.85;3.42;;;;;;;29.00;39.17;101061.16;10226966;29;20051;-79
2023/06/23 13:57:19;;;;;;;3.15;2.85;;;;;;;29.54;39.30;101057.50;10221538;29;20061;-79
2023/06/23 14:02:22;;;;;;;4.00;2.97;;;;;;;29.37;39.21;101061.97;10239744;28;20047;-79
2023/06/23 14:07:25;;;;;;;4.85;3.30;;;;;;;27.02;41.63;101065.09;10215598;29;20065;-78
2023/06/23 14:12:29;;;;;;;4.13;3.70;;;;;;;25.45;45.15;101069.22;10212211;29;20052;-78
2023/06/23 14:17:32;;;;;;;4.25;3.70;;;;;;;26.24;45.92;101063.91;10212956;29;20056;-78
2023/06/23 14:22:36;;;;;;;4.03;3.63;;;;;;;27.92;41.73;101054.88;10217497;29;20045;-76
2023/06/23 14:27:40;;;;;;;6.90;4.00;;;;;;;28.73;40.97;101060.59;10193740;29;20123;-77
2023/06/23 14:32:48;;;;;;;4.93;3.78;;;;;;;28.44;40.66;101054.66;10202399;29;20036;-76
2023/06/23 14:37:51;;;;;;;5.28;3.83;;;;;;;28.93;39.77;101059.31;10203935;29;20110;-76
2023/06/23 14:42:55;;;;;;;4.00;3.53;;;;;;;28.83;39.78;101053.47;10204655;29;20043;-77
2023/06/23 14:47:58;;;;;;;4.00;3.58;;;;;;;28.86;37.73;101047.47;10199028;29;20048;-77
2023/06/23 14:53:01;;;;;;;7.43;3.53;;;;;;;28.19;39.39;101052.75;10195378;29;20044;-77
2023/06/23 14:58:06;;;;;;;5.50;3.75;;;;;;;27.49;40.76;101051.97;10191586;29;20048;-76
2023/06/23 15:03:10;;;;;;;4.97;3.70;;;;;;;27.04;43.28;101061.06;10200520;29;20054;-77
2023/06/23 15:08:13;;;;;;;3.88;3.45;;;;;;;26.33;43.31;101071.94;10201267;29;20047;-77
2023/06/23 15:13:17;;;;;;;5.43;3.55;;;;;;;25.47;45.23;101062.44;10202498;29;20047;-76
2023/06/23 15:18:20;;;;;;;4.13;3.83;;;;;;;25.18;46.52;101063.63;10199926;29;20047;-76
2023/06/23 15:23:24;;;;;;;3.70;3.40;;;;;;;26.99;42.85;101071.00;10199390;29;20044;-76
2023/06/23 15:28:29;;;;;;;5.03;4.13;;;;;;;28.03;39.63;101058.88;10189326;29;20058;-76
2023/06/23 15:33:32;;;;;;;3.75;3.45;;;;;;;29.29;37.62;101057.63;10190896;29;20051;-77
2023/06/23 15:38:35;;;;;;;4.47;3.30;;;;;;;29.39;38.74;101045.97;10196236;29;20064;-77
2023/06/23 15:43:40;;;;;;;3.40;3.10;;;;;;;28.53;39.22;101056.13;10203848;29;20047;-76
2023/06/23 15:48:43;;;;;;;3.67;2.90;;;;;;;28.59;38.59;101057.97;10199294;29;20055;-76
2023/06/23 15:53:46;;;;;;;3.53;2.92;;;;;;;26.50;39.12;101063.03;10200550;29;20046;-76
2023/06/23 15:58:50;;;;;;;3.47;2.67;;;;;;;25.88;39.98;101067.03;10201464;29;20032;-75
2023/06/23 16:03:53;;;;;;;3.47;3.17;;;;;;;27.47;38.23;101059.63;10192442;29;20040;-76
2023/06/23 16:08:56;;;;;;;3.40;3.10;;;;;;;27.81;37.13;101055.56;10196287;29;20146;-76
2023/06/23 16:14:00;;;;;;;2.90;2.70;;;;;;;28.00;37.33;101059.28;10185706;29;20048;-76
2023/06/23 16:19:03;;;;;;;3.72;3.30;;;;;;;29.32;36.15;101059.91;10190315;29;20040;-76
2023/06/23 16:24:07;;;;;;;3.92;3.40;;;;;;;29.23;35.73;101069.59;10186689;29;20163;-76
2023/06/23 16:29:11;;;;;;;3.53;3.20;;;;;;;30.02;35.30;101062.09;10185407;29;20049;-76
2023/06/23 16:34:14;;;;;;;3.45;3.20;;;;;;;31.04;33.82;101055.38;10181746;29;20043;-75
2023/06/23 16:39:17;;;;;;;4.07;3.78;;;;;;;33.37;31.20;101060.72;10193285;29;20111;-76
2023/06/23 16:44:21;;;;;;;4.68;4.28;;;;;;;35.94;27.78;101052.94;10199538;29;20040;-76
2023/06/23 16:49:24;;;;;;;4.50;4.10;;;;;;;38.11;25.46;101061.13;10216670;28;20055;-76
2023/06/23 16:54:27;;;;;;;4.25;3.80;;;;;;;38.43;25.20;101054.09;10196685;29;20048;-76
2023/06/23 16:59:32;;;;;;;4.28;3.53;;;;;;;35.68;27.03;101069.66;10202524;29;20046;-76
2023/06/23 17:04:36;;;;;;;4.10;3.70;;;;;;;35.72;28.35;101062.38;10195156;29;20126;-76
2023/06/23 17:09:39;;;;;;;4.13;3.63;;;;;;;32.85;31.52;101059.22;10195815;29;20047;-76
2023/06/23 17:14:43;;;;;;;3.45;3.20;;;;;;;34.01;29.72;101065.59;10198765;29;20071;-76
2023/06/23 17:19:46;;;;;;;5.47;3.90;;;;;;;27.10;39.63;101079.47;10201900;29;20051;-76
2023/06/23 17:24:49;;;;;;;4.65;3.30;;;;;;;31.40;33.63;101071.97;10206018;29;20055;-76
2023/06/23 17:29:54;;;;;;;5.15;3.42;;;;;;;32.54;32.76;101082.09;10208543;29;20053;-76
2023/06/23 17:34:57;;;;;;;3.53;3.28;;;;;;;35.15;29.17;101071.69;10205477;29;20106;-76
2023/06/23 17:40:00;;;;;;;3.72;3.13;;;;;;;35.48;28.84;101077.97;10206364;29;20043;-76
2023/06/23 17:45:05;;;;;;;4.20;3.25;;;;;;;35.80;28.11;101066.59;10194658;29;20123;-76
2023/06/23 17:50:09;;;;;;;4.50;3.22;;;;;;;32.99;30.97;101081.94;10185277;29;20074;-78
2023/06/23 17:55:12;;;;;;;3.05;2.85;;;;;;;28.00;38.48;101095.19;10191383;29;20044;-77
2023/06/23 18:00:17;;;;;;;3.45;3.15;;;;;;;26.96;40.72;101105.41;10206463;29;20205;-75
2023/06/23 18:05:20;;;;;;;3.90;3.47;;;;;;;25.31;43.19;101107.66;10208064;29;20043;-74
2023/06/23 18:10:23;;;;;;;3.47;3.17;;;;;;;24.73;43.80;101109.81;10202585;29;20044;-75
2023/06/23 18:15:28;;;;;;;5.35;3.80;;;;;;;24.28;45.04;101101.84;10199550;29;20054;-75
2023/06/23 18:20:31;;;;;;;3.50;3.20;;;;;;;24.14;46.50;101115.66;10189511;29;20126;-76
2023/06/23 18:25:35;;;;;;;4.40;3.70;;;;;;;23.64;46.19;101116.38;10183672;29;20730;-76
2023/06/23 18:30:39;;;;;;;5.03;3.63;;;;;;;23.50;47.48;101116.38;10196957;29;20043;-75
2023/06/23 18:35:42;;;;;;;3.65;3.33;;;;;;;23.19;46.15;101120.19;10198366;29;20048;-75
2023/06/23 18:40:45;;;;;;;4.10;3.65;;;;;;;23.14;47.24;101122.66;10199253;29;20044;-75
2023/06/23 18:45:50;;;;;;;4.07;3.75;;;;;;;22.97;47.53;101130.19;10203183;29;20031;-77
2023/06/23 18:50:53;;;;;;;3.78;3.40;;;;;;;22.85;47.32;101138.03;10201033;29;20371;-77
2023/06/23 18:55:56;;;;;;;6.57;4.00;;;;;;;22.62;47.73;101146.28;10198634;29;20047;-76
2023/06/23 19:01:00;;;;;;;4.68;3.75;;;;;;;22.34;47.65;101145.97;10195733;29;20369;-77
2023/06/23 19:06:03;;;;;;;3.72;3.40;;;;;;;22.23;48.62;101143.69;10197154;29;20500;-76
2023/06/23 19:11:06;;;;;;;5.22;3.72;;;;;;;22.03;48.67;101151.53;10196400;29;20126;-76
2023/06/23 19:16:10;;;;;;;3.83;3.50;;;;;;;21.74;48.57;101158.50;10201043;29;20119;-76
2023/06/23 19:21:13;;;;;;;3.92;3.58;;;;;;;21.68;48.77;101156.47;10204339;29;20044;-76
2023/06/23 19:26:19;;;;;;;7.13;3.95;;;;;;;21.45;49.12;101156.44;10200305;29;20056;-76
2023/06/23 19:31:23;;;;;;;4.50;3.75;;;;;;;21.30;49.46;101171.84;10195485;29;20044;-77
2023/06/23 19:36:26;;;;;;;5.70;4.07;;;;;;;21.16;49.98;101184.34;10191945;29;20665;-76
2023/06/23 19:41:30;;;;;;;7.05;3.45;;;;;;;21.01;49.87;101198.69;10191241;29;20044;-77
2023/06/23 19:46:34;;;;;;;5.93;3.17;;;;;;;20.80;49.22;101201.13;10198236;29;20063;-76
2023/06/23 19:51:37;;;;;;;6.93;3.47;;;;;;;20.70;49.97;101206.75;10196461;29;20050;-76
2023/06/23 19:56:41;;;;;;;5.15;3.25;;;;;;;20.56;50.29;101201.97;10194816;29;20599;-76
2023/06/23 20:01:45;;;;;;;4.18;3.28;;;;;;;20.39;50.76;101209.28;10198828;29;20504;-75
2023/06/23 20:06:48;;;;;;;3.83;3.53;;;;;;;20.22;50.48;101219.31;10210645;29;20063;-76
2023/06/23 20:11:51;;;;;;;4.25;3.00;;;;;;;20.17;50.30;101224.41;10197973;29;20074;-77
2023/06/23 20:16:56;;;;;;;3.22;2.92;;;;;;;20.11;50.61;101219.63;10206320;29;20495;-76
2023/06/23 20:21:58;;;;;;;4.25;3.30;;;;;;;20.03;50.22;101215.00;10210460;29;20551;-76
2023/06/23 20:27:02;;;;;;;4.50;3.05;;;;;;;19.96;50.05;101211.22;10213903;29;20051;-77
2023/06/23 20:32:11;;;;;;;4.25;3.00;;;;;;;19.89;50.39;101213.78;10208755;29;20036;-77
2023/06/23 20:37:14;;;;;;;3.92;3.17;;;;;;;19.80;51.64;101213.88;10208694;29;20040;-75
2023/06/23 20:42:17;;;;;;;15.73;3.97;;;;;;;19.53;53.36;101221.25;10201256;29;20048;-75
2023/06/23 20:47:22;;;;;;;5.57;3.35;;;;;;;19.44;53.95;101228.53;10205096;29;20040;-75
2023/06/23 20:52:26;;;;;;;5.00;3.40;;;;;;;19.40;53.81;101229.03;10212563;29;21199;-76
2023/06/23 20:57:29;;;;;;;4.93;3.63;;;;;;;19.28;54.56;101241.19;10215203;29;20062;-76
2023/06/23 21:02:34;;;;;;;5.82;3.28;;;;;;;19.05;53.98;101236.28;10213605;29;20439;-77
2023/06/23 21:07:37;;;;;;;3.60;3.30;;;;;;;19.04;53.52;101250.94;10206203;29;20060;-76
2023/06/23 21:12:40;;;;;;;7.65;3.67;;;;;;;18.99;53.55;101259.56;10210280;29;20046;-76
2023/06/23 21:17:44;;;;;;;3.35;3.03;;;;;;;18.94;53.06;101263.78;10202907;29;20457;-77
2023/06/23 21:22:47;;;;;;;4.07;3.25;;;;;;;18.92;52.58;101273.94;10207637;29;20043;-76
2023/06/23 21:27:50;;;;;;;4.97;3.92;;;;;;;18.88;52.88;101267.13;10204819;29;20046;-77
2023/06/23 21:32:54;;;;;;;3.55;3.20;;;;;;;18.91;52.58;101278.56;10205842;29;20051;-77
2023/06/23 21:37:57;;;;;;;6.07;3.22;;;;;;;18.90;52.80;101282.28;10208991;29;20134;-78
2023/06/23 21:43:00;;;;;;;6.82;3.55;;;;;;;18.84;53.48;101280.22;10211833;29;20043;-78
2023/06/23 21:48:06;;;;;;;3.70;3.30;;;;;;;18.70;54.74;101280.72;10205738;29;20058;-79
2023/06/23 21:53:09;;;;;;;5.82;3.67;;;;;;;18.61;54.89;101273.50;10207982;29;20063;-79
2023/06/23 21:58:14;;;;;;;4.65;3.83;;;;;;;18.54;55.58;101274.13;10202218;29;20047;-78
2023/06/23 22:03:18;;;;;;;7.00;3.88;;;;;;;18.40;56.44;101279.22;10208278;29;20051;-78
2023/06/23 22:08:21;;;;;;;5.93;4.15;;;;;;;18.35;56.67;101276.97;10220943;29;20078;-79
2023/06/23 22:13:25;;;;;;;4.60;3.88;;;;;;;18.34;56.22;101284.25;10216001;29;20411;-79
2023/06/23 22:18:29;;;;;;;5.15;4.65;;;;;;;18.23;56.84;101276.31;10228882;29;20052;-78
2023/06/23 22:23:51;;;;;;;5.07;4.10;;;;;;;18.21;57.93;101278.38;10217223;29;20054;-78
2023/06/23 22:28:54;;;;;;;6.00;3.90;;;;;;;18.19;57.32;101276.81;10203360;29;20039;-78
2023/06/23 22:33:58;;;;;;;6.55;4.65;;;;;;;18.10;57.03;101267.66;10203514;29;20633;-78
2023/06/23 22:39:02;;;;;;;6.18;3.90;;;;;;;17.89;56.65;101274.19;10203780;29;20063;-78
2023/06/23 22:44:05;;;;;;;4.57;3.85;;;;;;;17.68;56.55;101276.31;10208404;29;20664;-79
2023/06/23 22:49:10;;;;;;;4.57;3.25;;;;;;;17.65;56.87;101272.03;10219919;29;20079;-79
2023/06/23 22:54:13;;;;;;;5.65;3.55;;;;;;;17.50;56.39;101272.66;10214903;29;20043;-79
2023/06/23 22:59:16;;;;;;;6.55;4.10;;;;;;;17.46;57.50;101278.38;10201562;29;20067;-78
2023/06/23 23:04:20;;;;;;;4.38;3.63;;;;;;;17.18;58.07;101282.03;10208981;29;20048;-78